createdAt,value
2022-10-10T00:00:00.220Z,88.5
2022-10-10T00:05:00.309Z,88.5
2022-10-10T00:10:00.276Z,88.5
2022-10-10T00:15:00.236Z,88.8
2022-10-10T00:20:00.245Z,89.1
2022-10-10T00:25:00.277Z,88.8
2022-10-10T00:30:00.266Z,88.8
2022-10-10T00:35:00.288Z,89.1
2022-10-10T00:40:00.329Z,89.1
2022-10-10T00:45:00.357Z,88.8
2022-10-10T00:50:00.386Z,88.8
2022-10-10T00:55:00.320Z,89.2
2022-10-10T01:00:00.346Z,88.8
2022-10-10T01:05:00.324Z,88.8
2022-10-10T01:10:00.336Z,89.1
2022-10-10T01:15:00.309Z,89.1
2022-10-10T01:20:00.329Z,89.1
2022-10-10T01:25:00.373Z,89.4
2022-10-10T01:30:00.387Z,89.1
2022-10-10T01:35:00.371Z,89.1
2022-10-10T01:40:00.416Z,89.8
2022-10-10T01:45:00.340Z,89.1
2022-10-10T01:50:00.363Z,89.8
2022-10-10T01:55:00.415Z,89.8
2022-10-10T02:00:00.372Z,89.8
2022-10-10T02:05:01.369Z,89.8
2022-10-10T02:10:01.422Z,89.2
2022-10-10T02:15:01.563Z,89.8
2022-10-10T02:20:01.446Z,89.8
2022-10-10T02:25:01.502Z,89.8
2022-10-10T02:30:01.446Z,89.8
2022-10-10T02:35:01.525Z,89.5
2022-10-10T02:40:01.618Z,89.5
2022-10-10T02:45:01.477Z,89.5
2022-10-10T02:50:01.434Z,89.8
2022-10-10T02:55:01.397Z,89.8
2022-10-10T03:00:01.548Z,90.1
2022-10-10T03:05:01.421Z,90.4
2022-10-10T03:10:01.531Z,90.4
2022-10-10T03:15:01.415Z,90.4
2022-10-10T03:20:01.403Z,91
2022-10-10T03:25:01.414Z,90.4
2022-10-10T03:30:01.405Z,90.4
2022-10-10T03:35:01.424Z,89.8
2022-10-10T03:40:01.435Z,90.1
2022-10-10T03:45:01.449Z,89.8
2022-10-10T03:50:01.568Z,89.8
2022-10-10T03:55:01.439Z,89.8
2022-10-10T04:00:01.630Z,89.8
2022-10-10T04:05:01.463Z,89.8
2022-10-10T04:10:01.523Z,91
2022-10-10T04:15:01.471Z,90.4
2022-10-10T04:20:01.471Z,90.4
2022-10-10T04:25:01.461Z,90.1
2022-10-10T04:30:01.580Z,89.8
2022-10-10T04:35:01.485Z,89.8
2022-10-10T04:40:01.535Z,89.8
2022-10-10T04:45:01.518Z,90.1
2022-10-10T04:50:01.448Z,90.4
2022-10-10T04:55:00.273Z,90.4
2022-10-10T05:00:00.239Z,90.4
2022-10-10T05:05:00.242Z,90.4
2022-10-10T05:10:00.247Z,90.1
2022-10-10T05:15:00.247Z,90.1
2022-10-10T05:20:00.254Z,90.4
2022-10-10T05:25:00.255Z,90.4
2022-10-10T05:30:00.262Z,90.7
2022-10-10T05:35:00.259Z,90.4
2022-10-10T05:40:00.310Z,90.7
2022-10-10T05:45:00.275Z,90.4
2022-10-10T05:50:00.278Z,89.8
2022-10-10T05:55:00.339Z,90.1
2022-10-10T06:00:00.379Z,89.8
2022-10-10T06:05:00.315Z,89.8
2022-10-10T06:10:00.361Z,89.8
2022-10-10T06:15:00.343Z,89.8
2022-10-10T06:20:00.331Z,90.2
2022-10-10T06:25:00.335Z,89.8
2022-10-10T06:30:00.368Z,90.1
2022-10-10T06:35:00.311Z,90.2
2022-10-10T06:40:00.509Z,89.8
2022-10-10T06:45:00.567Z,89.9
2022-10-10T06:50:00.631Z,89.9
2022-10-10T06:55:00.475Z,89.9
2022-10-10T07:00:00.640Z,89.9
2022-10-10T07:05:00.484Z,89.9
2022-10-10T07:10:00.524Z,89.3
2022-10-10T07:15:00.517Z,89.3
2022-10-10T07:20:00.368Z,89.4
2022-10-10T07:25:00.393Z,89.4
2022-10-10T07:30:00.410Z,89.4
2022-10-10T07:35:00.409Z,89.4
2022-10-10T07:40:00.401Z,89.7
2022-10-10T07:45:00.400Z,89.4
2022-10-10T07:50:00.402Z,90
2022-10-10T07:55:00.413Z,89.7
2022-10-10T08:00:00.436Z,89.4
2022-10-10T08:05:00.485Z,89.1
2022-10-10T08:10:00.458Z,88.8
2022-10-10T08:15:00.617Z,88.9
2022-10-10T08:20:00.639Z,88.9
2022-10-10T08:25:00.583Z,88.9
2022-10-10T08:30:00.574Z,87.7
2022-10-10T08:35:00.465Z,88.3
2022-10-10T08:40:00.504Z,87.7
2022-10-10T08:45:00.483Z,87.7
2022-10-10T08:50:00.523Z,88
2022-10-10T08:55:00.463Z,87.4
2022-10-10T09:00:00.491Z,87.1
2022-10-10T09:05:00.596Z,86.8
2022-10-10T09:10:00.486Z,86.5
2022-10-10T09:15:02.681Z,86.5
2022-10-10T09:20:00.486Z,86.6
2022-10-10T09:25:00.493Z,85.6
2022-10-10T09:30:00.511Z,85.3
2022-10-10T09:35:00.508Z,85.3
2022-10-10T09:40:00.524Z,85.3
2022-10-10T09:45:00.538Z,84.8
2022-10-10T09:50:00.627Z,83.5
2022-10-10T09:55:00.523Z,84.2
2022-10-10T10:00:03.847Z,83.2
2022-10-10T10:05:00.523Z,83.6
2022-10-10T10:10:00.543Z,83.6
2022-10-10T10:15:00.565Z,83
2022-10-10T10:20:00.552Z,81.8
2022-10-10T10:25:00.572Z,80.6
2022-10-10T10:30:00.561Z,80.3
2022-10-10T10:35:00.564Z,79.7
2022-10-10T10:40:00.570Z,79.4
2022-10-10T10:45:00.574Z,79.1
2022-10-10T10:50:00.663Z,77.6
2022-10-10T10:55:00.337Z,76.3
2022-10-10T11:00:22.344Z,77.6
2022-10-10T11:05:24.362Z,75.7
2022-10-10T11:10:00.263Z,76.4
2022-10-10T11:15:00.233Z,75.8
2022-10-10T11:20:00.284Z,72.6
2022-10-10T11:25:00.373Z,74.5
2022-10-10T11:30:00.608Z,74.6
2022-10-10T11:35:00.499Z,73.3
2022-10-10T11:40:00.257Z,72.7
2022-10-10T11:45:00.311Z,72.7
2022-10-10T11:50:00.249Z,71.4
2022-10-10T11:55:00.353Z,73.3
2022-10-10T12:00:00.261Z,73.3
2022-10-10T12:05:00.253Z,74.9
2022-10-10T12:10:00.237Z,74
2022-10-10T12:15:00.243Z,72.4
2022-10-10T12:20:00.306Z,73
2022-10-10T12:25:00.264Z,73
2022-10-10T12:30:00.265Z,73.9
2022-10-10T12:35:00.261Z,74.3
2022-10-10T12:40:00.283Z,73.3
2022-10-10T12:45:00.276Z,73.3
2022-10-10T12:50:00.311Z,72.7
2022-10-10T12:55:04.404Z,72.1
2022-10-10T13:00:02.271Z,73.4
2022-10-10T13:05:00.326Z,72.1
2022-10-10T13:10:00.310Z,72.1
2022-10-10T13:15:00.312Z,72.1
2022-10-10T13:20:00.357Z,70.5
2022-10-10T13:25:00.307Z,71.5
2022-10-10T13:30:00.334Z,72.1
2022-10-10T13:35:00.324Z,72.7
2022-10-10T13:40:00.330Z,71.8
2022-10-10T13:45:00.406Z,73.1
2022-10-10T13:50:00.351Z,73.7
2022-10-10T13:55:00.376Z,73.4
2022-10-10T14:00:00.485Z,73
2022-10-10T14:05:00.392Z,74
2022-10-10T14:10:00.426Z,74.6
2022-10-10T14:15:00.398Z,74.6
2022-10-10T14:20:00.435Z,74.6
2022-10-10T14:25:00.388Z,75.2
2022-10-10T14:30:00.456Z,74.9
2022-10-10T14:35:00.408Z,74.9
2022-10-10T14:40:00.392Z,75.5
2022-10-10T14:45:00.495Z,75.8
2022-10-10T14:50:00.477Z,75.2
2022-10-10T14:55:00.451Z,75.5
2022-10-10T15:00:00.476Z,75.8
2022-10-10T15:05:00.433Z,75.8
2022-10-10T15:10:32.091Z,76.4
2022-10-10T15:15:00.435Z,77
2022-10-10T15:20:00.551Z,77
2022-10-10T15:25:00.432Z,77.6
2022-10-10T15:30:00.568Z,78.3
2022-10-10T15:35:00.481Z,78.3
2022-10-10T15:40:00.613Z,78.9
2022-10-10T15:45:00.485Z,79.2
2022-10-10T15:50:00.619Z,79.5
2022-10-10T15:55:00.485Z,80.1
2022-10-10T16:00:00.612Z,80.1
2022-10-10T16:05:00.487Z,80
2022-10-10T16:10:00.561Z,80.6
2022-10-10T16:15:06.006Z,81.2
2022-10-10T16:20:00.501Z,81.2
2022-10-10T16:25:22.174Z,81.5
2022-10-10T16:30:00.611Z,81.8
2022-10-10T16:35:00.628Z,81.7
2022-10-10T16:40:00.617Z,82.3
2022-10-10T16:45:00.554Z,82.6
2022-10-10T16:50:00.489Z,82.9
2022-10-10T16:55:00.323Z,83.2
2022-10-10T17:00:00.240Z,82.8
2022-10-10T17:05:00.164Z,82.8
2022-10-10T17:10:00.208Z,82.8
2022-10-10T17:15:00.266Z,82.7
2022-10-10T17:20:00.236Z,83.3
2022-10-10T17:25:00.193Z,83.3
2022-10-10T17:30:00.203Z,83.9
2022-10-10T17:35:00.207Z,83.5
2022-10-10T17:40:00.214Z,84.4
2022-10-10T17:45:00.245Z,85.7
2022-10-10T17:50:00.224Z,85.7
2022-10-10T17:55:00.910Z,86.3
2022-10-10T18:00:00.255Z,86.9
2022-10-10T18:05:00.263Z,87.2
2022-10-10T18:10:00.253Z,87.5
2022-10-10T18:15:00.276Z,87.7
2022-10-10T18:20:00.314Z,88.1
2022-10-10T18:25:00.291Z,88.1
2022-10-10T18:30:00.268Z,88.7
2022-10-10T18:35:00.266Z,88.7
2022-10-10T18:40:00.301Z,88.7
2022-10-10T18:45:00.269Z,88.6
2022-10-10T18:50:00.449Z,88.9
2022-10-10T18:55:00.531Z,89.2
2022-10-10T19:00:00.324Z,89.6
2022-10-10T19:05:00.527Z,89.6
2022-10-10T19:10:00.478Z,90.2
2022-10-10T19:15:00.436Z,90.5
2022-10-10T19:20:00.448Z,90.5
2022-10-10T19:25:00.407Z,90.5
2022-10-10T19:30:00.788Z,90.2
2022-10-10T19:35:00.387Z,90.1
2022-10-10T19:40:01.883Z,89.8
2022-10-10T19:45:00.366Z,89.8
2022-10-10T19:50:00.386Z,90.7
2022-10-10T19:55:00.366Z,91
2022-10-10T20:00:00.389Z,90.7
2022-10-10T20:05:00.458Z,91
2022-10-10T20:10:00.479Z,91
2022-10-10T20:15:00.355Z,90.7
2022-10-10T20:20:00.411Z,91
2022-10-10T20:25:00.387Z,91
2022-10-10T20:30:00.468Z,91.6
2022-10-10T20:35:00.389Z,92.6
2022-10-10T20:40:00.512Z,92.3
2022-10-10T20:45:00.407Z,92.3
2022-10-10T20:50:00.401Z,91.9
2022-10-10T20:55:00.397Z,91.9
2022-10-10T21:00:00.453Z,92.2
2022-10-10T21:05:00.419Z,92.2
2022-10-10T21:10:00.423Z,92.2
2022-10-10T21:15:00.431Z,92.2
2022-10-10T21:20:00.422Z,92.9
2022-10-10T21:25:00.491Z,92.9
2022-10-10T21:30:00.436Z,93.6
2022-10-10T21:35:00.458Z,93.6
2022-10-10T21:40:00.495Z,93.9
2022-10-10T21:45:00.473Z,94.2
2022-10-10T21:50:00.496Z,94.3
2022-10-10T21:55:00.512Z,94
2022-10-10T22:00:00.522Z,94.3
2022-10-10T22:05:00.485Z,94.3
2022-10-10T22:10:00.497Z,94.3
2022-10-10T22:15:00.491Z,94
2022-10-10T22:20:00.619Z,94
2022-10-10T22:25:00.588Z,94.4
2022-10-10T22:30:00.656Z,94
2022-10-10T22:35:00.732Z,94.4
2022-10-10T22:40:00.671Z,94.1
2022-10-10T22:45:00.830Z,93.7
2022-10-10T22:50:00.808Z,93.8
2022-10-10T22:55:00.541Z,93.8
2022-10-10T23:00:00.342Z,93.8
2022-10-10T23:05:00.173Z,93.4
2022-10-10T23:10:00.196Z,93.5
2022-10-10T23:15:00.191Z,93.8
2022-10-10T23:20:00.203Z,93.8
2022-10-10T23:25:00.244Z,93.5
2022-10-10T23:30:00.236Z,93.5
2022-10-10T23:35:00.194Z,93.8
2022-10-10T23:40:00.255Z,93.8
2022-10-10T23:45:00.209Z,93.8
2022-10-10T23:50:00.250Z,93.2
2022-10-10T23:55:00.253Z,93.2
